Airfield :
LOGIN :

Register | Disclaimer

   EN    FR    IT 

 










Legend :    VFR   Marginal VFR   IFR   Intensive IFR   Very Intensive IFR
Visi :
Ceiling :
>= 8 km
>= 3000ft
5 to 8 km
1000 to 3000 ft
1500m to 5 km
500 to 1000 ft
800 to 1500m
200 to 500 ft
< 800m
< 200 ft
Symbols :   Thunderstorms  Fog  Heavy snow  Heavy precipitations  Wind > 20 kt
SIGMETs :     Misc.  Thunderstorms  Icing  Turbulence  Mountain Waves  Volcanic Ashes






- Airport Elevation : 359 ft
- IATA code : DEB


LHDC - Debrecen

CURRENT METAR :
  • 281645Z AUTO 17005KT 140V220 7000 -SHRA NCD 05/05 Q1005 NOSIG

EXPIRED METARs :
  • 281615Z AUTO 18005KT 5000 -SHRA BR FEW008 BKN038 05/05 Q1005 NOSIG
  • 281603Z AUTO 18005KT 150V210 5000 -SHRA BR SCT008 BKN038 05/05 Q1006
  • 281548Z AUTO 19003KT 5000 -SHRA BR BKN008 BKN037 04/04 Q1006
  • 281515Z AUTO 20004KT 3300 -RA BR OVC008 04/04 Q1006 BECMG BKN010
  • 281445Z AUTO 20005KT 3300 BR BKN007 05/05 Q1006 NOSIG
  • 281415Z AUTO 21006KT 170V230 3500 BR BKN005 05/05 Q1007 NOSIG

TAF TAF LHDC
Valid from the 28 at 15:00 until the 29 at 00:00 UTC


281415Z 2815/2824 20010KT 3000 BR OVC005
BECMG 2815/2818 5000 BR SCT010 BKN045
TEMPO 2818/2824 21014G28KT 1500 SHRA BKN008 BKN015TCU
BECMG 2821/2824 27012KT



MET'MAP, your aeronautical weather chart ! - Copyright ORBIFLY December 2007 - Disclaimer

ORBIFLY MET'MAP TEAM :

Programming & Development : Alexandra Zaïnal
Concept & original design : Baudouin d'Aumeries
Assistance for programming : Marc-Olivier Méhu
Technical & hardware support : Manuel Goepfert

Contact : metmap@orbifly.com




SOURCES & CREDITS :

   NOAA